Anderson, South Dakota
Current Conditions -  °F | °C
As of 8:53 AM on Friday 31 Oct 2014 (Local Time) from KHEI Reporting Station
Overcast Overcast  
Wind Chill: 12°   Ceiling: 500
Heat Index: 26°   Visibility: 10mi
Dew Point: 22°   Wind: 21mph
Humidity: 84%   Direction: 140°SE
Pressure: 30.36"   Gusts: 28mph
Location:  45.2919°N, 102.298°W
Report Text: KHEI 311453Z AUTO 14018G24KT 10SM OVC005 M03/M06 A3036 RMK AO2 SLP313 I3000 T10331056 56018
Loading
Personal Weather Stations






























Interactive Weather Map
Tropical Storm Tracking
New forecast layout! Learn more

10-Day Weather Forecast

Advertisements
Track Severe Weather on mobile